Aviation Digital Data Service (ADDS)

Output produced by METARs form (1810 UTC 01 August 2015)
found at http://aviationweather.gov/adds/metars/
 
KPHL 011730Z 0118/0224 27012G18KT P6SM FEW060 SCT120 
     FM020000 29007KT P6SM SKC 
     FM020600 33004KT P6SM SKC 
     FM021500 28006KT P6SM FEW050